Terminal Aerodrome Forecast
Issued by NWS

Home | Current Version | Previous Version | Text Only | Print | Product List | Glossary On
Versions: 1 2 3 4 5 6 7 8 9 10 11 12 13 14 15 16 17 18 19 20 21 22 23
000
FTUS41 KGYX 240900 AAA
TAFRKD
TAF AMD
KRKD 240917Z 2409/2506 33012G18KT P6SM BKN050
     FM241200 32015G25KT P6SM BKN050
     FM241600 33020G35KT P6SM SCT050 BKN100
     FM250300 01013KT P6SM SCT100
      AMD LTD TO CLD VIS AND WIND=

USA.gov is the U.S. government's official web portal to all federal, state and local government web resources and services.